createdAt,value
2018-06-30T05:54:37.849Z,4752
2018-06-30T05:55:39.468Z,4672
2018-06-30T05:57:31.192Z,4400
2018-06-30T05:58:32.814Z,4280
2018-06-30T06:00:24.509Z,4036
2018-06-30T06:01:26.128Z,3924
2018-06-30T06:03:17.829Z,3884
2018-06-30T06:04:19.453Z,3848
2018-06-30T06:06:11.178Z,3844
2018-06-30T06:07:12.798Z,3840
2018-06-30T06:09:04.496Z,3840
2018-06-30T06:10:06.142Z,3872
2018-06-30T06:11:57.815Z,3956
2018-06-30T06:53:47.980Z,41600
2018-06-30T06:54:49.606Z,43264
2018-06-30T06:56:41.326Z,42848
2018-06-30T06:57:42.950Z,39840
2018-06-30T06:59:34.666Z,46048
2018-06-30T07:00:36.320Z,47200
2018-06-30T07:02:28.046Z,43392
2018-06-30T07:03:29.680Z,43424
2018-06-30T07:05:21.397Z,41312
2018-06-30T07:06:23.138Z,38624
2018-06-30T07:08:14.881Z,42688
2018-06-30T07:09:16.512Z,44896
2018-06-30T07:11:08.235Z,44416
2018-06-30T07:12:09.864Z,40992
2018-06-30T07:14:01.586Z,41664
2018-06-30T07:15:03.682Z,42048
2018-06-30T07:16:55.370Z,43456
2018-06-30T07:17:57.036Z,44480
2018-06-30T07:19:48.751Z,44128
2018-06-30T07:20:50.385Z,40992
2018-06-30T07:22:42.117Z,40672
2018-06-30T07:23:43.736Z,44448
2018-06-30T07:25:35.476Z,52960
2018-06-30T07:26:37.092Z,45152
2018-06-30T07:28:28.821Z,45504
2018-06-30T07:29:30.455Z,49728
2018-06-30T07:31:22.402Z,53856
2018-06-30T07:32:24.044Z,52736
2018-06-30T07:34:15.746Z,57888
2018-06-30T07:35:17.382Z,65312
2018-06-30T07:37:09.114Z,66816
2018-06-30T07:38:10.746Z,63072
2018-06-30T07:40:02.502Z,46720
2018-06-30T07:41:04.136Z,38752
2018-06-30T07:42:55.860Z,35392
2018-06-30T07:43:57.491Z,34976
2018-06-30T07:45:49.219Z,33888
2018-06-30T07:46:50.850Z,33792
2018-06-30T07:48:42.583Z,33792
2018-06-30T07:49:44.209Z,34016
2018-06-30T07:51:35.946Z,34848
2018-06-30T07:52:37.579Z,35040
2018-06-30T07:54:29.314Z,35232
2018-06-30T07:55:30.953Z,35680
2018-06-30T07:57:22.687Z,36352
2018-06-30T07:58:24.317Z,36480
2018-06-30T08:00:16.048Z,36992
2018-06-30T08:01:17.687Z,37024
2018-06-30T08:03:09.422Z,37056
2018-06-30T08:04:11.049Z,36960
2018-06-30T08:06:02.774Z,37536
2018-06-30T08:07:04.412Z,37408
2018-06-30T08:08:56.135Z,37248
2018-06-30T13:10:52.497Z,79552
2018-06-30T14:07:59.376Z,78464
2018-06-30T14:17:08.255Z,74944
2018-06-30T23:33:08.857Z,0
2018-06-30T23:35:20.142Z,0
